Date,TemperatureHighF,TemperatureAvgF,TemperatureLowF,DewpointHighF,DewpointAvgF,DewpointLowF,HumidityHigh,HumidityAvg,HumidityLow,PressureMaxIn,PressureMinIn,WindSpeedMaxMPH,WindSpeedAvgMPH,GustSpeedMaxMPH,PrecipitationSumIn
2013-3-1,76.5,76.5,76.5,51.0,51.0,51.0,32,32,32,27.11,26.99,17,7,17,0.04
2013-3-2,76.5,76.5,76.5,51.0,51.0,51.0,32,32,32,27.11,26.99,31,9,31,0.04
2013-3-3,76.5,76.5,76.5,51.0,51.0,51.0,32,32,32,27.14,27.02,38,15,38,0.04
2013-3-4,76.5,76.5,76.5,51.0,51.0,51.0,32,32,32,27.17,27.08,30,10,30,0.00
2013-3-5,76.5,76.5,76.5,51.0,51.0,51.0,32,32,32,27.17,27.08,22,7,22,0.04
2013-3-6,76.5,76.5,76.5,51.0,51.0,51.0,32,32,32,27.17,27.08,28,8,28,0.04
2013-3-7,76.5,76.5,76.5,51.0,51.0,51.0,32,32,32,27.14,27.05,27,11,27,0.00
2013-3-8,76.5,76.5,76.5,51.0,51.0,51.0,32,32,32,27.14,27.02,30,12,30,0.04
2013-3-9,76.5,76.5,76.5,51.0,51.0,51.0,32,32,32,27.17,27.02,21,8,21,0.04
2013-3-10,76.5,74.6,70.2,62.6,54.6,51.0,77,46,32,27.11,27.02,18,4,18,0.00
2013-3-11,77.0,66.8,63.9,62.6,56.2,53.8,77,69,47,27.11,27.02,17,4,17,0.04
2013-3-12,77.0,70.9,66.7,59.2,54.7,52.2,74,58,42,27.17,27.05,20,8,23,0.04
2013-3-13,69.3,66.9,64.9,56.3,54.7,48.6,70,65,54,27.17,27.05,26,8,26,0.04
2013-3-14,68.2,66.2,63.5,53.5,49.6,48.2,68,55,47,27.14,27.05,30,10,30,0.04
2013-3-15,69.3,66.3,62.2,52.3,49.0,48.4,70,51,34,27.14,27.02,29,11,29,0.04
2013-3-16,75.0,70.3,65.1,53.3,49.2,48.4,64,39,26,27.14,27.02,28,9,28,0.04
2013-3-17,84.7,70.1,62.6,61.5,54.1,48.4,87,58,31,27.17,27.08,17,4,17,0.04
2013-3-18,82.0,72.2,62.6,61.2,55.5,51.7,80,58,35,27.20,27.11,12,3,12,0.00
2013-3-19,81.5,70.4,64.4,66.0,56.8,49.8,90,63,47,27.17,27.08,14,3,14,0.04
2013-3-20,76.5,65.5,62.1,60.5,55.0,50.9,87,70,43,27.17,27.08,6,1,6,0.00